Time;durP1;ratioP1;P1;durP2;ratioP2;P2;SDS_P1;SDS_P2;PMS_P1;PMS_P2;Temp;Humidity;BMP_temperature;BMP_pressure;BME280_temperature;BME280_humidity;BME280_pressure;Samples;Min_cycle;Max_cycle;Signal;HPM_P1;HPM_P2
2022/04/11 00:01:26;;;;;;;7.72;1.48;;;;;;;;;;5575869;23;20035;-81
2022/04/11 00:06:27;;;;;;;3.38;1.35;;;;;;;;;;5227802;23;20116;-84
2022/04/11 00:08:59;;;;;;;7.22;1.80;;;;;;;;;;5000096;28;20007;-83
2022/04/11 00:14:04;;;;;;;3.92;1.52;;;;;;;;;;4978587;28;20031;-84
2022/04/11 00:16:30;;;;;;;6.25;1.60;;;;;;;;;;5001704;23;20046;-83
2022/04/11 00:18:55;;;;;;;6.32;1.70;;;;;;;;;;5108405;23;20058;-84
2022/04/11 00:26:34;;;;;;;3.17;1.55;;;;;;;;;;5212727;23;20054;-84
2022/04/11 00:29:10;;;;;;;5.93;1.35;;;;;;;;;;4999722;28;20009;-85
2022/04/11 00:31:53;;;;;;;4.93;1.50;;;;;;;;;;4999298;28;20095;-84
2022/04/11 00:34:22;;;;;;;5.03;1.48;;;;;;;;;;5000293;28;20003;-85
2022/04/11 00:36:50;;;;;;;4.68;1.63;;;;;;;;;;5707901;22;20022;-79
2022/04/11 00:52:06;;;;;;;;;;;;;;;;;;5331733;23;20058;-84
2022/04/11 00:57:09;;;;;;;5.35;1.48;;;;;;;;;;5705498;23;20107;-85
2022/04/11 01:02:10;;;;;;;5.32;1.50;;;;;;;;;;6098247;23;21425;-79
2022/04/11 01:04:36;;;;;;;7.30;1.70;;;;;;;;;;5500438;23;20036;-83
2022/04/11 01:07:09;;;;;;;5.88;1.58;;;;;;;;;;5193495;22;20021;-80
2022/04/11 01:09:35;;;;;;;4.65;1.63;;;;;;;;;;5056429;23;20046;-83
2022/04/11 01:17:14;;;;;;;4.28;1.40;;;;;;;;;;5222876;23;20038;-85
2022/04/11 01:19:42;;;;;;;4.47;1.40;;;;;;;;;;5607112;23;20060;-81
2022/04/11 01:22:07;;;;;;;4.57;1.60;;;;;;;;;;4998745;28;20128;-83
2022/04/11 01:29:52;;;;;;;2.70;1.48;;;;;;;;;;5529447;23;20035;-84
2022/04/11 01:34:58;;;;;;;5.13;1.40;;;;;;;;;;5020216;23;20034;-84
2022/04/11 01:37:24;;;;;;;6.35;1.85;;;;;;;;;;5504836;23;20024;-80
2022/04/11 01:40:07;;;;;;;10.20;1.48;;;;;;;;;;5162708;23;20832;-84
2022/04/11 01:42:35;;;;;;;5.07;1.58;;;;;;;;;;5152251;23;20107;-83
2022/04/11 01:45:11;;;;;;;;;;;;;;;;;;;;;
2022/04/11 01:47:39;;;;;;;5.07;1.65;;;;;;;;;;5379747;23;20050;-85
2022/04/11 01:50:06;;;;;;;4.88;1.60;;;;;;;;;;5002981;28;20046;-84
2022/04/11 01:52:37;;;;;;;3.53;1.42;;;;;;;;;;5002663;28;20046;-83
2022/04/11 01:55:25;;;;;;;5.38;1.70;;;;;;;;;;5002847;28;20015;-81
2022/04/11 01:58:05;;;;;;;3.00;1.35;;;;;;;;;;5371223;23;20042;-83
2022/04/11 02:05:48;;;;;;;5.85;1.40;;;;;;;;;;5276473;23;20034;-83
2022/04/11 02:10:51;;;;;;;6.22;1.90;;;;;;;;;;5254156;23;20034;-84
2022/04/11 02:13:16;;;;;;;5.78;2.08;;;;;;;;;;5002232;28;19999;-84
2022/04/11 02:18:17;;;;;;;5.13;1.73;;;;;;;;;;5768699;23;20026;-83
2022/04/11 02:20:48;;;;;;;4.43;1.33;;;;;;;;;;5013526;23;20022;-82
2022/04/11 02:23:17;;;;;;;6.15;2.35;;;;;;;;;;5001836;28;20033;-84
2022/04/11 02:25:45;;;;;;;8.38;2.20;;;;;;;;;;5279493;23;20050;-80
2022/04/11 02:28:13;;;;;;;8.82;2.10;;;;;;;;;;5110345;23;20037;-82
2022/04/11 02:33:13;;;;;;;9.07;2.05;;;;;;;;;;5106443;23;20041;-83
2022/04/11 02:35:46;;;;;;;4.82;2.28;;;;;;;;;;5001774;28;20090;-84
2022/04/11 02:40:46;;;;;;;9.38;1.88;;;;;;;;;;5801023;23;20064;-83
2022/04/11 03:09:00;;;;;;;3.72;2.10;;;;;;;;;;5437372;23;20042;-85
2022/04/11 03:29:36;;;;;;;5.57;2.08;;;;;;;;;;5612913;23;20042;-84
2022/04/11 03:32:03;;;;;;;5.93;2.55;;;;;;;;;;5055105;23;20026;-82
2022/04/11 03:34:38;;;;;;;7.10;2.40;;;;;;;;;;4999328;28;20007;-83
2022/04/11 03:37:03;;;;;;;5.00;2.20;;;;;;;;;;5572696;23;20051;-84
2022/04/11 03:47:17;;;;;;;7.47;2.85;;;;;;;;;;5648289;23;20074;-84
2022/04/11 03:49:46;;;;;;;;;;;;;;;;;;5049008;23;20070;-84
2022/04/11 03:52:16;;;;;;;7.00;2.50;;;;;;;;;;4999799;28;19916;-85
2022/04/11 03:57:21;;;;;;;8.45;2.13;;;;;;;;;;5644657;23;20058;-84
2022/04/11 04:00:12;;;;;;;6.20;2.10;;;;;;;;;;5940677;23;20072;-81
2022/04/11 04:02:39;;;;;;;11.35;3.45;;;;;;;;;;4980437;28;20015;-83
2022/04/11 04:07:54;;;;;;;;;;;;;;;;;;;;;
2022/04/11 04:10:32;;;;;;;9.90;2.40;;;;;;;;;;4978260;28;20043;-85
2022/04/11 04:25:54;;;;;;;5.97;2.45;;;;;;;;;;5271410;22;20039;-83
2022/04/11 04:28:20;;;;;;;6.50;2.80;;;;;;;;;;5000265;28;20018;-86
2022/04/11 04:33:14;;;;;;;5.22;2.70;;;;;;;;;;4997530;28;19906;-84
2022/04/11 04:38:20;;;;;;;5.78;2.63;;;;;;;;;;5497391;23;20049;-84
2022/04/11 04:40:48;;;;;;;8.07;3.25;;;;;;;;;;4999831;28;20082;-84
2022/04/11 04:46:02;;;;;;;4.97;2.58;;;;;;;;;;5539197;23;20043;-81
2022/04/11 04:48:27;;;;;;;6.85;3.13;;;;;;;;;;5674073;23;20061;-83
2022/04/11 04:56:11;;;;;;;5.75;2.35;;;;;;;;;;5744053;23;20123;-85
2022/04/11 04:58:55;;;;;;;5.72;2.70;;;;;;;;;;4998987;28;20047;-83
2022/04/11 05:01:20;;;;;;;9.60;3.28;;;;;;;;;;5312908;23;20026;-84
2022/04/11 05:03:46;;;;;;;8.88;2.50;;;;;;;;;;4999599;28;20039;-83
2022/04/11 05:06:22;;;;;;;4.93;2.33;;;;;;;;;;4999250;28;20038;-84
2022/04/11 05:08:48;;;;;;;8.65;3.45;;;;;;;;;;4999080;28;20003;-84
2022/04/11 05:11:20;;;;;;;6.97;3.15;;;;;;;;;;4997875;28;20073;-84
2022/04/11 05:13:48;;;;;;;7.50;2.50;;;;;;;;;;4998335;28;20015;-84
2022/04/11 05:16:18;;;;;;;6.83;2.63;;;;;;;;;;4998362;28;20061;-84
2022/04/11 05:18:47;;;;;;;6.13;2.72;;;;;;;;;;4998041;28;20114;-84
2022/04/11 05:21:16;;;;;;;6.65;2.55;;;;;;;;;;4999087;28;20090;-83
2022/04/11 05:23:51;;;;;;;7.70;2.60;;;;;;;;;;4999293;28;20022;-83
2022/04/11 05:26:19;;;;;;;4.57;2.55;;;;;;;;;;5032154;23;20098;-84
2022/04/11 05:28:48;;;;;;;4.55;2.45;;;;;;;;;;4996651;28;20019;-85
2022/04/11 05:31:14;;;;;;;6.35;3.00;;;;;;;;;;4998209;28;20027;-85
2022/04/11 05:33:39;;;;;;;9.80;2.38;;;;;;;;;;4998886;28;20107;-85
2022/04/11 05:36:07;;;;;;;8.18;2.58;;;;;;;;;;4998622;28;20027;-84
2022/04/11 05:38:38;;;;;;;7.30;2.72;;;;;;;;;;4998828;28;20027;-84
2022/04/11 05:41:07;;;;;;;8.38;2.78;;;;;;;;;;4996179;28;20019;-84
2022/04/11 05:43:32;;;;;;;;;;;;;;;;;;4997586;28;20083;-85
2022/04/11 05:45:59;;;;;;;12.70;2.50;;;;;;;;;;4997006;28;19911;-84
2022/04/11 05:48:24;;;;;;;6.72;3.05;;;;;;;;;;4997196;28;20009;-83
2022/04/11 05:50:52;;;;;;;6.72;2.40;;;;;;;;;;4995557;28;20110;-84
2022/04/11 05:53:18;;;;;;;7.80;2.63;;;;;;;;;;4997344;28;20015;-83
2022/04/11 05:55:46;;;;;;;7.25;2.60;;;;;;;;;;4996713;28;20029;-84
2022/04/11 05:58:14;;;;;;;5.00;2.50;;;;;;;;;;4996803;28;20034;-84
2022/04/11 06:00:39;;;;;;;6.03;2.40;;;;;;;;;;4994694;28;20015;-84
2022/04/11 06:03:05;;;;;;;12.30;2.97;;;;;;;;;;4994651;28;20014;-85
2022/04/11 06:05:31;;;;;;;5.63;2.20;;;;;;;;;;4994484;28;20075;-85
2022/04/11 06:07:58;;;;;;;9.60;2.35;;;;;;;;;;4994724;28;20015;-82
2022/04/11 06:10:46;;;;;;;5.82;2.42;;;;;;;;;;4994790;28;20023;-84
2022/04/11 06:13:14;;;;;;;6.13;2.35;;;;;;;;;;4993402;28;20090;-84
2022/04/11 06:15:49;;;;;;;8.30;2.90;;;;;;;;;;4994420;28;20054;-83
2022/04/11 06:18:15;;;;;;;7.82;2.38;;;;;;;;;;4994293;28;20101;-83
2022/04/11 06:20:41;;;;;;;8.38;2.70;;;;;;;;;;4992632;28;20027;-83
2022/04/11 06:23:06;;;;;;;6.68;2.53;;;;;;;;;;4993153;28;20015;-83
2022/04/11 06:25:35;;;;;;;6.20;2.47;;;;;;;;;;4996187;28;20023;-83
2022/04/11 06:28:08;;;;;;;5.47;2.35;;;;;;;;;;4997075;28;20083;-84
2022/04/11 06:30:36;;;;;;;6.00;2.80;;;;;;;;;;4999220;28;20031;-84
2022/04/11 06:33:11;;;;;;;10.37;3.40;;;;;;;;;;4999854;28;20034;-83
2022/04/11 06:35:39;;;;;;;5.43;2.42;;;;;;;;;;5000404;28;20033;-84
2022/04/11 06:38:10;;;;;;;10.95;3.08;;;;;;;;;;5000522;28;19999;-82
2022/04/11 06:40:45;;;;;;;12.40;3.05;;;;;;;;;;5000242;28;20031;-83
2022/04/11 06:43:23;;;;;;;6.10;2.85;;;;;;;;;;5001043;28;20015;-82
2022/04/11 06:48:41;;;;;;;5.10;1.92;;;;;;;;;;5103967;23;19906;-84
2022/04/11 06:51:06;;;;;;;4.35;2.50;;;;;;;;;;4998946;28;20041;-83
2022/04/11 06:53:42;;;;;;;;;;;;;;;;;;;;;
2022/04/11 06:56:10;;;;;;;6.28;2.50;;;;;;;;;;5000628;28;20073;-82
2022/04/11 06:58:36;;;;;;;5.65;2.55;;;;;;;;;;5000381;28;20050;-82
2022/04/11 07:01:01;;;;;;;5.88;2.45;;;;;;;;;;4991247;23;20042;-79
2022/04/11 07:03:29;;;;;;;8.88;2.90;;;;;;;;;;4979636;28;20040;-79
2022/04/11 07:05:54;;;;;;;8.98;2.78;;;;;;;;;;4980232;28;20023;-81
2022/04/11 07:08:19;;;;;;;19.60;3.30;;;;;;;;;;4978975;28;20023;-79
2022/04/11 07:10:45;;;;;;;7.68;2.72;;;;;;;;;;4978996;28;20106;-80
2022/04/11 07:13:10;;;;;;;5.72;2.90;;;;;;;;;;4979794;28;20022;-79
2022/04/11 07:15:35;;;;;;;9.48;2.53;;;;;;;;;;4979751;28;20454;-79
2022/04/11 07:18:00;;;;;;;5.57;2.95;;;;;;;;;;4978891;28;20541;-79
2022/04/11 07:20:25;;;;;;;6.13;2.70;;;;;;;;;;4983775;28;20402;-80
2022/04/11 07:22:51;;;;;;;6.07;2.72;;;;;;;;;;4985576;28;20485;-79
2022/04/11 07:25:16;;;;;;;8.88;2.80;;;;;;;;;;4984131;28;20019;-80
2022/04/11 07:27:41;;;;;;;5.38;2.03;;;;;;;;;;4981622;28;20042;-80
2022/04/11 07:30:07;;;;;;;5.95;2.20;;;;;;;;;;4982537;28;20027;-79
2022/04/11 07:32:33;;;;;;;6.38;1.98;;;;;;;;;;4982854;28;20055;-81
2022/04/11 07:34:59;;;;;;;7.35;2.40;;;;;;;;;;4982337;28;20053;-79
2022/04/11 07:37:25;;;;;;;5.28;2.13;;;;;;;;;;4982315;28;20026;-79
2022/04/11 07:39:51;;;;;;;8.68;1.98;;;;;;;;;;4979287;28;20026;-80
2022/04/11 07:42:17;;;;;;;3.97;2.05;;;;;;;;;;4980247;28;20034;-80
2022/04/11 07:44:42;;;;;;;9.05;2.60;;;;;;;;;;4980266;28;20021;-81
2022/04/11 07:47:08;;;;;;;5.75;2.15;;;;;;;;;;4982573;28;20467;-79
2022/04/11 07:49:34;;;;;;;7.22;2.20;;;;;;;;;;4978240;28;20019;-78
2022/04/11 07:51:59;;;;;;;8.48;2.22;;;;;;;;;;4979333;28;20093;-79
2022/04/11 07:54:24;;;;;;;4.25;1.60;;;;;;;;;;4978096;28;20478;-79
2022/04/11 07:56:49;;;;;;;8.20;2.03;;;;;;;;;;4978321;28;20644;-79
2022/04/11 07:59:15;;;;;;;5.68;1.73;;;;;;;;;;4978883;28;20469;-80
2022/04/11 08:01:44;;;;;;;3.88;1.35;;;;;;;;;;4978379;28;20072;-80
2022/04/11 08:04:09;;;;;;;4.80;1.40;;;;;;;;;;4979483;28;20023;-80
2022/04/11 08:06:34;;;;;;;5.50;1.40;;;;;;;;;;4981763;28;20027;-80
2022/04/11 08:08:59;;;;;;;2.38;1.20;;;;;;;;;;4979469;28;20466;-80
2022/04/11 08:11:25;;;;;;;3.63;1.00;;;;;;;;;;4979706;28;20023;-79
2022/04/11 08:13:51;;;;;;;7.60;1.38;;;;;;;;;;4976240;28;20474;-80
2022/04/11 08:16:16;;;;;;;5.05;1.35;;;;;;;;;;4979821;28;20030;-79
2022/04/11 08:18:41;;;;;;;2.92;1.15;;;;;;;;;;4982051;28;20019;-80
2022/04/11 08:21:07;;;;;;;7.38;1.55;;;;;;;;;;4978653;28;20027;-79
2022/04/11 08:23:33;;;;;;;5.78;1.40;;;;;;;;;;4977400;28;20019;-79
2022/04/11 08:25:58;;;;;;;3.17;1.30;;;;;;;;;;4978263;28;20015;-80
2022/04/11 08:28:24;;;;;;;3.08;1.10;;;;;;;;;;4977002;28;20015;-79
2022/04/11 08:30:49;;;;;;;8.02;1.70;;;;;;;;;;4976277;28;20500;-80
2022/04/11 08:33:15;;;;;;;3.50;1.40;;;;;;;;;;4979323;28;20025;-79
2022/04/11 08:35:40;;;;;;;5.90;1.40;;;;;;;;;;4976325;28;20073;-80
2022/04/11 08:38:05;;;;;;;6.13;1.77;;;;;;;;;;4976576;28;20018;-80
2022/04/11 08:40:31;;;;;;;5.18;1.40;;;;;;;;;;4977275;28;20018;-80
2022/04/11 08:42:56;;;;;;;3.85;1.10;;;;;;;;;;4976356;28;20379;-80
2022/04/11 08:45:23;;;;;;;6.85;1.63;;;;;;;;;;4975685;28;20053;-78
2022/04/11 08:47:50;;;;;;;3.47;0.90;;;;;;;;;;4974523;28;20022;-79
2022/04/11 08:50:18;;;;;;;3.33;0.80;;;;;;;;;;4975846;28;20044;-80
2022/04/11 08:52:44;;;;;;;4.28;1.10;;;;;;;;;;4974846;28;20023;-80
2022/04/11 08:55:10;;;;;;;3.20;0.95;;;;;;;;;;4976748;28;20414;-80
2022/04/11 08:57:38;;;;;;;4.63;1.20;;;;;;;;;;4976735;28;20153;-80
2022/04/11 09:00:06;;;;;;;7.13;0.95;;;;;;;;;;4975160;28;20063;-79
2022/04/11 09:02:32;;;;;;;3.13;1.15;;;;;;;;;;4974821;28;20430;-80
2022/04/11 09:04:57;;;;;;;2.28;0.95;;;;;;;;;;4975044;28;20046;-78
2022/04/11 09:07:23;;;;;;;6.25;1.35;;;;;;;;;;4977665;28;20471;-80
2022/04/11 09:09:48;;;;;;;4.63;1.30;;;;;;;;;;4975639;28;20038;-79
2022/04/11 09:12:15;;;;;;;2.00;0.95;;;;;;;;;;4978334;28;20475;-80
2022/04/11 09:14:41;;;;;;;3.10;1.08;;;;;;;;;;4977200;28;20027;-80
2022/04/11 09:17:06;;;;;;;2.60;1.00;;;;;;;;;;4977054;28;20019;-80
2022/04/11 09:19:31;;;;;;;6.25;1.25;;;;;;;;;;4976252;28;20022;-79
2022/04/11 09:21:57;;;;;;;6.65;1.10;;;;;;;;;;4976075;28;20567;-79
2022/04/11 09:24:24;;;;;;;2.28;0.80;;;;;;;;;;4976843;28;20021;-79
2022/04/11 09:26:54;;;;;;;3.25;1.02;;;;;;;;;;4976528;28;20015;-79
2022/04/11 09:29:19;;;;;;;6.10;1.27;;;;;;;;;;4976631;28;20026;-79
2022/04/11 09:31:45;;;;;;;5.05;1.30;;;;;;;;;;4976115;28;20019;-79
2022/04/11 09:34:14;;;;;;;4.68;1.27;;;;;;;;;;4974773;28;20023;-80
2022/04/11 09:36:44;;;;;;;6.13;1.08;;;;;;;;;;4973153;28;20023;-80
2022/04/11 09:39:09;;;;;;;5.22;1.20;;;;;;;;;;4971724;28;20031;-80
2022/04/11 09:41:36;;;;;;;5.72;1.40;;;;;;;;;;4973292;28;20034;-80
2022/04/11 09:44:34;;;;;;;4.18;1.25;;;;;;;;;;4972670;28;20061;-82
2022/04/11 09:47:03;;;;;;;2.43;0.90;;;;;;;;;;4939315;28;20493;-81
2022/04/11 09:49:29;;;;;;;3.47;0.90;;;;;;;;;;4972978;28;20248;-79
2022/04/11 09:52:13;;;;;;;4.68;0.85;;;;;;;;;;4978252;28;20050;-79
2022/04/11 09:54:43;;;;;;;4.65;0.93;;;;;;;;;;4978688;28;20078;-82
2022/04/11 09:57:08;;;;;;;2.75;0.80;;;;;;;;;;4975821;28;20022;-79
2022/04/11 09:59:34;;;;;;;7.25;1.45;;;;;;;;;;4977610;28;20049;-80
2022/04/11 10:01:59;;;;;;;3.10;1.05;;;;;;;;;;4979769;28;20026;-79
2022/04/11 10:04:27;;;;;;;5.47;1.00;;;;;;;;;;4977348;28;20343;-81
2022/04/11 10:06:53;;;;;;;4.28;1.00;;;;;;;;;;4974699;28;20045;-80
2022/04/11 10:09:23;;;;;;;2.63;0.90;;;;;;;;;;4976813;28;20015;-79
2022/04/11 10:11:49;;;;;;;1.33;0.60;;;;;;;;;;4974733;28;20148;-81
2022/04/11 10:14:17;;;;;;;3.75;0.85;;;;;;;;;;4975703;28;20022;-79
2022/04/11 10:16:43;;;;;;;3.63;0.90;;;;;;;;;;4975660;28;20053;-81
2022/04/11 10:19:09;;;;;;;3.28;1.00;;;;;;;;;;4975270;28;20023;-80
2022/04/11 10:21:41;;;;;;;1.95;0.82;;;;;;;;;;4975289;28;20019;-79
2022/04/11 10:24:26;;;;;;;1.92;0.90;;;;;;;;;;4975346;28;20082;-80
2022/04/11 10:26:53;;;;;;;6.13;0.82;;;;;;;;;;4945131;28;20031;-80
2022/04/11 10:29:29;;;;;;;3.20;0.98;;;;;;;;;;4973974;28;20486;-80
2022/04/11 10:32:05;;;;;;;3.58;1.00;;;;;;;;;;4974250;28;20070;-81
2022/04/11 10:35:02;;;;;;;3.45;0.85;;;;;;;;;;4974063;28;20050;-81
2022/04/11 10:37:48;;;;;;;6.35;0.98;;;;;;;;;;4943093;28;20030;-84
2022/04/11 10:40:16;;;;;;;4.28;0.90;;;;;;;;;;4964817;28;20045;-82
2022/04/11 10:43:07;;;;;;;2.93;1.10;;;;;;;;;;4973954;28;20537;-81
2022/04/11 10:45:41;;;;;;;4.50;0.90;;;;;;;;;;4967245;28;20292;-81
2022/04/11 10:48:10;;;;;;;3.63;0.90;;;;;;;;;;4974989;28;20026;-80
2022/04/11 10:50:35;;;;;;;3.15;1.02;;;;;;;;;;4974875;28;20549;-80
2022/04/11 10:53:08;;;;;;;11.02;1.95;;;;;;;;;;4974952;28;20034;-80
2022/04/11 10:55:34;;;;;;;3.47;1.10;;;;;;;;;;4975180;28;20015;-81
2022/04/11 10:58:00;;;;;;;5.13;1.30;;;;;;;;;;4974843;28;20027;-81
2022/04/11 11:00:34;;;;;;;3.83;1.05;;;;;;;;;;4974086;28;20035;-79
2022/04/11 11:03:04;;;;;;;3.35;1.27;;;;;;;;;;4973420;28;20015;-81
2022/04/11 11:05:39;;;;;;;5.28;1.30;;;;;;;;;;4975053;28;20015;-81
2022/04/11 11:08:10;;;;;;;4.10;1.42;;;;;;;;;;4973298;28;20015;-82
2022/04/11 11:10:45;;;;;;;3.58;1.10;;;;;;;;;;4973314;28;20026;-82
2022/04/11 11:13:49;;;;;;;4.03;1.20;;;;;;;;;;4972820;28;20027;-79
2022/04/11 11:16:14;;;;;;;2.58;1.02;;;;;;;;;;4914784;29;20024;-78
2022/04/11 11:18:51;;;;;;;4.43;1.40;;;;;;;;;;4914363;29;20835;-79
2022/04/11 11:21:45;;;;;;;5.50;1.10;;;;;;;;;;4914187;29;20568;-82
2022/04/11 11:24:11;;;;;;;3.55;1.70;;;;;;;;;;4898403;29;20028;-79
2022/04/11 11:26:46;;;;;;;4.30;1.25;;;;;;;;;;4914475;29;20020;-78
2022/04/11 11:29:14;;;;;;;3.67;0.90;;;;;;;;;;4898534;29;20024;-79
2022/04/11 11:31:40;;;;;;;4.30;1.35;;;;;;;;;;4914359;29;20091;-80
2022/04/11 11:34:10;;;;;;;5.13;1.70;;;;;;;;;;4913945;29;20420;-78
2022/04/11 11:36:35;;;;;;;5.25;1.27;;;;;;;;;;4914290;29;20044;-81
2022/04/11 11:39:00;;;;;;;13.00;2.65;;;;;;;;;;4898429;29;20079;-78
2022/04/11 11:41:25;;;;;;;1.98;0.90;;;;;;;;;;4913716;29;20389;-79
2022/04/11 11:43:54;;;;;;;3.92;1.17;;;;;;;;;;4913581;29;20028;-79
2022/04/11 11:46:19;;;;;;;10.43;1.75;;;;;;;;;;4927549;28;20110;-78
2022/04/11 11:48:45;;;;;;;8.17;1.53;;;;;;;;;;4973799;28;20051;-78
2022/04/11 11:51:10;;;;;;;2.90;1.27;;;;;;;;;;4973565;28;20311;-80
2022/04/11 11:53:43;;;;;;;3.75;0.93;;;;;;;;;;4973755;28;20023;-77
2022/04/11 11:56:11;;;;;;;4.13;1.10;;;;;;;;;;4973956;28;20019;-78
2022/04/11 11:58:37;;;;;;;6.00;1.27;;;;;;;;;;4973901;28;20058;-78
2022/04/11 12:01:04;;;;;;;3.35;1.20;;;;;;;;;;4972314;28;20027;-79
2022/04/11 12:06:13;;;;;;;2.72;0.93;;;;;;;;;;4974122;28;20062;-79
2022/04/11 12:08:38;;;;;;;3.92;1.30;;;;;;;;;;4972558;28;20019;-79
2022/04/11 12:11:03;;;;;;;4.60;1.30;;;;;;;;;;4973195;28;20019;-80
2022/04/11 12:13:29;;;;;;;2.45;0.95;;;;;;;;;;4972850;28;20505;-78
2022/04/11 12:16:17;;;;;;;7.20;1.33;;;;;;;;;;4973376;28;20023;-79
2022/04/11 12:19:02;;;;;;;3.38;1.00;;;;;;;;;;4973527;28;20022;-81
2022/04/11 12:21:31;;;;;;;4.13;0.95;;;;;;;;;;4973409;28;20026;-78
2022/04/11 12:23:57;;;;;;;4.68;1.10;;;;;;;;;;4973174;28;20027;-78
2022/04/11 12:26:27;;;;;;;5.95;1.50;;;;;;;;;;4972117;28;20502;-80
2022/04/11 12:28:52;;;;;;;2.85;1.10;;;;;;;;;;4971951;28;20026;-80
2022/04/11 12:31:18;;;;;;;3.08;1.10;;;;;;;;;;4971644;28;20025;-80
2022/04/11 12:33:48;;;;;;;4.10;1.00;;;;;;;;;;4972569;28;20422;-79
2022/04/11 12:36:13;;;;;;;4.10;1.40;;;;;;;;;;4971236;28;20482;-80
2022/04/11 12:38:40;;;;;;;4.75;1.52;;;;;;;;;;4972746;28;20041;-79
2022/04/11 12:41:05;;;;;;;6.45;1.30;;;;;;;;;;4972712;28;20022;-80
2022/04/11 12:43:30;;;;;;;3.22;1.17;;;;;;;;;;4973079;28;20033;-79
2022/04/11 12:46:05;;;;;;;6.38;1.55;;;;;;;;;;4972928;28;20447;-79
2022/04/11 12:48:50;;;;;;;1.65;0.85;;;;;;;;;;4971714;28;20023;-77
2022/04/11 12:51:16;;;;;;;2.42;1.10;;;;;;;;;;4971556;28;20453;-80
2022/04/11 12:53:43;;;;;;;3.67;1.10;;;;;;;;;;4971766;28;20054;-78
2022/04/11 12:56:09;;;;;;;7.45;1.63;;;;;;;;;;4973464;28;20045;-79
2022/04/11 12:58:37;;;;;;;6.43;1.40;;;;;;;;;;4972730;28;20485;-79
2022/04/11 13:01:02;;;;;;;3.80;1.20;;;;;;;;;;4986238;23;20051;-90
2022/04/11 13:03:28;;;;;;;4.10;1.05;;;;;;;;;;4975932;28;20030;-90
2022/04/11 13:06:04;;;;;;;7.50;1.98;;;;;;;;;;4975888;28;20118;-88
2022/04/11 13:08:30;;;;;;;6.00;1.23;;;;;;;;;;4975584;28;20015;-90
2022/04/11 13:10:58;;;;;;;5.28;1.25;;;;;;;;;;4976432;28;20110;-91
2022/04/11 13:13:25;;;;;;;3.38;1.17;;;;;;;;;;4975530;28;20142;-90
2022/04/11 13:18:41;;;;;;;4.80;1.52;;;;;;;;;;4977218;28;20037;-89
2022/04/11 13:21:26;;;;;;;5.47;1.00;;;;;;;;;;4974833;28;20023;-88
2022/04/11 13:23:52;;;;;;;4.47;1.67;;;;;;;;;;4966685;28;20031;-88
2022/04/11 13:26:17;;;;;;;3.08;1.10;;;;;;;;;;4980786;28;20548;-88
2022/04/11 13:28:43;;;;;;;4.18;1.30;;;;;;;;;;4981605;28;20026;-89
2022/04/11 13:31:11;;;;;;;3.17;1.10;;;;;;;;;;4983317;28;20045;-87
2022/04/11 13:33:36;;;;;;;3.75;1.27;;;;;;;;;;4980486;28;20490;-87
2022/04/11 13:36:02;;;;;;;3.33;1.25;;;;;;;;;;4982985;28;20125;-88
2022/04/11 13:38:27;;;;;;;2.83;1.08;;;;;;;;;;4981321;28;20398;-88
2022/04/11 13:40:52;;;;;;;5.15;1.23;;;;;;;;;;4982265;28;20022;-88
2022/04/11 13:43:18;;;;;;;3.50;1.30;;;;;;;;;;4981280;28;20026;-88
2022/04/11 13:45:46;;;;;;;3.40;1.48;;;;;;;;;;4983632;28;20023;-89
2022/04/11 13:48:17;;;;;;;5.63;1.50;;;;;;;;;;4986116;28;20026;-89
2022/04/11 13:50:43;;;;;;;4.38;1.10;;;;;;;;;;4983483;28;20026;-88
2022/04/11 13:53:08;;;;;;;7.85;2.35;;;;;;;;;;4983331;28;20021;-87
2022/04/11 13:55:34;;;;;;;4.93;1.33;;;;;;;;;;4980980;28;20113;-87
2022/04/11 13:57:59;;;;;;;3.67;1.13;;;;;;;;;;4978970;28;20438;-88
2022/04/11 14:00:24;;;;;;;4.40;1.90;;;;;;;;;;4978984;28;20023;-87
2022/04/11 14:02:50;;;;;;;2.45;1.25;;;;;;;;;;4977873;28;20050;-87
2022/04/11 14:05:18;;;;;;;3.25;1.20;;;;;;;;;;4978258;28;20030;-87
2022/04/11 14:07:43;;;;;;;;;;;;;;;;;;4978636;28;20089;-86
2022/04/11 14:10:09;;;;;;;3.67;1.30;;;;;;;;;;4977258;28;20420;-87
2022/04/11 14:12:35;;;;;;;3.15;1.40;;;;;;;;;;4978768;28;20433;-87
2022/04/11 14:15:00;;;;;;;4.88;1.67;;;;;;;;;;4978393;28;20105;-87
2022/04/11 14:17:25;;;;;;;4.35;1.50;;;;;;;;;;4977819;28;20147;-88
2022/04/11 14:19:51;;;;;;;4.68;1.20;;;;;;;;;;4975777;28;20027;-87
2022/04/11 14:22:17;;;;;;;5.05;1.20;;;;;;;;;;4975541;28;20031;-85
2022/04/11 14:24:42;;;;;;;6.10;2.25;;;;;;;;;;4976154;28;20113;-86
2022/04/11 14:27:07;;;;;;;3.70;1.60;;;;;;;;;;4975730;28;20489;-86
2022/04/11 14:29:32;;;;;;;5.00;1.15;;;;;;;;;;4976067;28;20257;-88
2022/04/11 14:31:58;;;;;;;2.63;1.20;;;;;;;;;;4978138;28;20077;-87
2022/04/11 14:34:23;;;;;;;5.55;1.38;;;;;;;;;;4975168;28;20357;-86
2022/04/11 14:36:48;;;;;;;4.07;1.20;;;;;;;;;;4974980;28;20023;-87
2022/04/11 14:39:14;;;;;;;3.05;1.35;;;;;;;;;;4974929;28;20253;-86
2022/04/11 14:41:40;;;;;;;6.00;1.55;;;;;;;;;;4975180;28;20069;-86
2022/04/11 14:44:05;;;;;;;3.10;1.25;;;;;;;;;;4976923;28;20037;-86
2022/04/11 14:46:30;;;;;;;5.75;1.50;;;;;;;;;;4975619;28;20026;-87
2022/04/11 14:48:55;;;;;;;2.58;1.20;;;;;;;;;;4975618;28;20524;-86
2022/04/11 14:51:21;;;;;;;3.75;1.10;;;;;;;;;;4976838;28;20438;-85
2022/04/11 14:53:46;;;;;;;8.85;1.27;;;;;;;;;;4976434;28;20397;-85
2022/04/11 14:56:11;;;;;;;4.07;1.27;;;;;;;;;;4974861;28;20393;-85
2022/04/11 14:58:39;;;;;;;2.83;1.23;;;;;;;;;;4976987;28;20022;-87
2022/04/11 15:01:06;;;;;;;5.82;1.75;;;;;;;;;;4974828;28;20667;-85
2022/04/11 15:03:31;;;;;;;10.93;1.50;;;;;;;;;;4974730;28;20164;-87
2022/04/11 15:05:57;;;;;;;5.30;1.57;;;;;;;;;;4976147;28;20043;-87
2022/04/11 15:08:22;;;;;;;4.30;1.17;;;;;;;;;;4975296;28;20253;-87
2022/04/11 15:10:48;;;;;;;4.85;1.40;;;;;;;;;;4975454;28;20445;-87
2022/04/11 15:13:16;;;;;;;4.93;1.38;;;;;;;;;;4977212;28;20030;-87
2022/04/11 15:15:42;;;;;;;3.05;1.20;;;;;;;;;;4976894;28;20022;-87
2022/04/11 15:18:07;;;;;;;7.13;1.38;;;;;;;;;;4979054;28;20094;-87
2022/04/11 15:20:32;;;;;;;3.90;1.35;;;;;;;;;;4980470;28;20367;-88
2022/04/11 15:22:59;;;;;;;4.03;1.48;;;;;;;;;;4976386;28;20449;-87
2022/04/11 15:25:25;;;;;;;2.35;1.17;;;;;;;;;;4976130;28;20070;-87
2022/04/11 15:27:50;;;;;;;3.00;1.02;;;;;;;;;;4976932;28;20019;-86
2022/04/11 15:30:16;;;;;;;3.83;1.42;;;;;;;;;;4977970;28;20475;-87
2022/04/11 15:32:42;;;;;;;3.25;1.13;;;;;;;;;;4981107;28;20031;-88
2022/04/11 15:35:10;;;;;;;4.80;2.33;;;;;;;;;;4988288;28;20474;-87
2022/04/11 15:37:36;;;;;;;4.07;1.58;;;;;;;;;;4988059;28;20033;-88
2022/04/11 15:40:02;;;;;;;2.43;1.10;;;;;;;;;;4986345;28;20027;-89
2022/04/11 15:42:28;;;;;;;6.30;1.95;;;;;;;;;;4983587;28;20291;-87
2022/04/11 15:44:53;;;;;;;5.10;1.02;;;;;;;;;;4984062;28;20537;-86
2022/04/11 15:47:19;;;;;;;4.43;1.40;;;;;;;;;;4990720;28;20015;-86
2022/04/11 15:49:45;;;;;;;2.75;1.25;;;;;;;;;;4992809;28;20025;-87
2022/04/11 15:52:13;;;;;;;3.25;1.70;;;;;;;;;;4991334;28;20023;-87
2022/04/11 15:54:51;;;;;;;;;;;;;;;;;;;;;
2022/04/11 15:57:28;;;;;;;6.47;1.67;;;;;;;;;;4992909;28;20038;-86
2022/04/11 16:00:08;;;;;;;;;;;;;;;;;;;;;
2022/04/11 16:02:37;;;;;;;9.15;1.50;;;;;;;;;;4995310;28;20046;-88
2022/04/11 16:05:13;;;;;;;3.80;1.35;;;;;;;;;;4991836;28;20378;-88
2022/04/11 16:07:55;;;;;;;6.28;1.48;;;;;;;;;;4990962;28;20027;-86
2022/04/11 16:10:24;;;;;;;3.95;1.40;;;;;;;;;;4990213;28;20026;-87
2022/04/11 16:12:59;;;;;;;3.92;1.27;;;;;;;;;;4991600;28;20019;-87
2022/04/11 16:15:26;;;;;;;4.45;1.38;;;;;;;;;;4990818;28;20047;-87
2022/04/11 16:17:55;;;;;;;3.50;1.23;;;;;;;;;;4991455;28;20023;-87
2022/04/11 16:20:27;;;;;;;4.97;1.23;;;;;;;;;;4990541;28;20019;-87
2022/04/11 16:23:20;;;;;;;3.35;1.50;;;;;;;;;;4990078;28;20022;-86
2022/04/11 16:25:48;;;;;;;4.22;1.40;;;;;;;;;;4989877;28;20469;-87
2022/04/11 16:28:19;;;;;;;3.60;1.52;;;;;;;;;;4988698;28;20110;-86
2022/04/11 16:30:56;;;;;;;2.53;1.30;;;;;;;;;;4992819;28;20058;-87
2022/04/11 16:33:28;;;;;;;4.30;1.40;;;;;;;;;;4990665;28;20027;-87
2022/04/11 16:35:56;;;;;;;3.58;1.30;;;;;;;;;;4992204;28;20034;-86
2022/04/11 16:38:36;;;;;;;5.22;1.70;;;;;;;;;;4992478;28;20027;-87
2022/04/11 16:41:07;;;;;;;6.43;1.67;;;;;;;;;;4990780;28;20243;-87
2022/04/11 16:43:40;;;;;;;3.72;1.25;;;;;;;;;;4994009;28;20091;-86
2022/04/11 16:46:07;;;;;;;5.05;1.35;;;;;;;;;;4992156;28;20010;-87
2022/04/11 16:48:35;;;;;;;2.35;1.33;;;;;;;;;;4992724;28;20076;-87
2022/04/11 16:51:22;;;;;;;3.70;1.60;;;;;;;;;;4991496;28;20026;-86
2022/04/11 16:56:58;;;;;;;4.55;2.05;;;;;;;;;;4992739;28;20037;-87
2022/04/11 16:59:31;;;;;;;5.32;2.40;;;;;;;;;;4989920;28;20027;-86
2022/04/11 17:01:57;;;;;;;6.15;1.90;;;;;;;;;;4983862;28;20030;-89
2022/04/11 17:04:26;;;;;;;5.45;1.67;;;;;;;;;;4978112;28;20023;-88
2022/04/11 17:06:51;;;;;;;4.65;1.35;;;;;;;;;;4976421;28;20238;-89
2022/04/11 17:09:17;;;;;;;3.33;1.50;;;;;;;;;;4979052;28;20478;-88
2022/04/11 17:11:43;;;;;;;5.30;1.90;;;;;;;;;;4977809;28;20022;-89
2022/04/11 17:14:08;;;;;;;3.63;1.40;;;;;;;;;;4981350;28;20026;-89
2022/04/11 17:19:21;;;;;;;4.40;1.83;;;;;;;;;;4978880;28;20025;-89
2022/04/11 17:21:49;;;;;;;5.18;2.05;;;;;;;;;;4979584;28;20027;-90
2022/04/11 17:24:15;;;;;;;16.40;6.93;;;;;;;;;;4978211;28;20029;-89
2022/04/11 17:26:40;;;;;;;16.08;6.25;;;;;;;;;;4979199;28;20110;-88
2022/04/11 17:29:06;;;;;;;5.43;2.22;;;;;;;;;;4977831;28;20493;-89
2022/04/11 17:31:34;;;;;;;6.93;2.40;;;;;;;;;;4978769;28;20413;-89